KIRS

Kirsch Municipal Airport

Sturgis, Michigan, USA
METAR KIRS 150315Z AUTO 00000KT 10SM CLR 22/20 A3000 RMK AO2 T02230197
Observed Flight Rules
Aug-15 @ 03:15 UTC (19 minutes ago) Visual Flight Rules
Visibility Clouds
10 miles
  • Clear skies
Temperatures Readings
Current 22°C / 72°F
Dewpoint 20°C / 68°F
Humidity 88%
Altimeter 30" Hg
Pressure 1016 hPa
Elevation 282
METAR KIRS 150315Z AUTO 00000KT 10SM CLR 22/20 A3000 RMK AO2 T02230197
Observed Flight Rules
Aug-15 @ 03:15 UTC
(19 minutes ago)
VFR
Clouds
  • Clear skies
Temperature Dewpoint
22°C / 72°F 20°C / 68°F
Humidity Altimeter Pressure
88% 30" Hg 1016 hPa